Terminal Aerodrome Forecast
Issued by NWS Spokane, WA

Home | Current Version | Previous Version | Text Only | Print | Product List | Glossary On
Versions: 1 2 3 4 5 6 7 8 9 10 11 12 13 14 15 16
700
FTUS46 KOTX 221426 AAA
TAFEAT
TAF AMD
KEAT 221426Z 2214/2312 30011KT P6SM -SHRA BKN070 OVC110
     FM221800 30010KT P6SM VCTS SCT080CB BKN120
     FM230300 30015G20KT P6SM VCSH SCT100 BKN200
     FM230600 31012KT P6SM BKN200=

USA.gov is the U.S. government's official web portal to all federal, state and local government web resources and services.